• Join FlightAware (Why Join?)
  • Login
  • US Flag 
12:02AM EDT


 

Airport Tracker/Info


-or-


 

Live Flight TrackerFlight Track Log ✈ SKW5516 ✈ 11-Jun-2013 ✈ KDEN - KBOI

Flight Track Log - Related Links

Times and Time Zones

All times are in EDT time to prevent confusion due to time zone crossing. See the SKW5516 flight status page for this flight to view local times or setup timezone preferences in your user account.

Time Position Orientation Groundspeed Altitude Reporting Facility
EDT Latitude Longitude Course Direction KTS MPH feet Rate Location/Type
10:22AM 39.8667 -104.8000 270° West 227 261 7,300  Level Denver TRACON
10:23AM 39.9000 -104.8833 298° West 273 314 8,900 1,740 Climbing Denver TRACON
10:24AM 39.9000 -104.9833 270° West 281 323 10,800 1,620 Climbing Denver TRACON
10:25AM 39.9150 -105.0503 286° West 289 333 11,700 1,800 Climbing Denver Center
10:26AM 39.9258 -105.1614 277° West 306 352 14,000 2,220 Climbing Denver Center
10:27AM 39.9167 -105.3859 270° West  Level FlightAware Approximate
10:27AM 39.9369 -105.2811 277° West 309 356 16,400  Level Denver Center
10:28AM 39.9481 -105.3939 277° West 316 364 17,600 1,260 Climbing Denver Center
10:29AM 39.9622 -105.5303 278° West 353 406 19,100 1,500 Climbing Denver Center
10:30AM 39.9733 -105.6603 276° West 364 419 20,700 1,440 Climbing Denver Center
10:31AM 39.9742 -105.7917 271° West 363 418 22,100 1,320 Climbing Denver Center
10:32AM 39.9733 -105.9233 270° West 362 417 23,500 1,260 Climbing Denver Center
10:33AM 39.9819 -106.0625 275° West 384 442 24,800 1,200 Climbing Denver Center
10:34AM 39.9900 -106.2039 274° West 392 451 26,100 1,140 Climbing Denver Center
10:35AM 39.9981 -106.3533 274° West 404 465 27,200 1,080 Climbing Denver Center
10:36AM 40.0342 -106.5167 286° West 431 496 28,400 1,320 Climbing Denver Center
10:37AM 40.0967 -106.6717 298° West 437 503 30,000 1,320 Climbing Denver Center
10:38AM 40.1503 -106.8053 298° West 436 502 31,200 1,200 Climbing Denver Center
10:39AM 40.1950 -106.9156 298° West 433 498 32,500 1,020 Climbing Denver Center
10:40AM 40.2617 -107.0903 297° West 423 487 33,400 840 Climbing Denver Center
10:41AM 40.3169 -107.2272 298° West 439 505 34,300 900 Climbing Denver Center
10:42AM 40.3797 -107.3867 297° West 441 507 35,300 960 Climbing Denver Center
10:43AM 40.4331 -107.5236 297° West 442 509 36,300 960 Climbing Denver Center
10:44AM 40.4944 -107.6806 297° West 436 502 37,400 780 Climbing Denver Center
10:45AM 40.5458 -107.8142 297° West 431 496 38,000 240 Climbing Denver Center
10:46AM 40.6061 -107.9706 297° West 430 495 38,000  Level Denver Center
10:47AM 40.6611 -108.1103 297° West 445 512 38,000  Level Denver Center
10:48AM 40.7236 -108.2778 296° West 457 526 38,000  Level Denver Center
10:49AM 40.7817 -108.4292 297° West 458 527 38,000  Level Denver Center
10:50AM 40.8364 -108.5750 296° West 462 532 38,000  Level Denver Center
10:52AM 40.9003 -108.7453 296° West 464 534 38,000  Level Denver Center
10:53AM 40.9544 -108.8919 296° West 464 534 38,000  Level Denver Center
10:53AM 41.0011 -109.0169 296° West 468 539 38,000  Level Salt Lake Center
10:54AM 41.0556 -109.1644 296° West 464 534 38,000  Level Salt Lake Center
10:55AM 41.1075 -109.3092 296° West 454 522 38,000  Level Salt Lake Center
10:56AM 41.1686 -109.4750 296° West 448 516 38,000  Level Salt Lake Center
10:57AM 41.2192 -109.6178 295° West 445 512 38,000  Level Salt Lake Center
10:58AM 41.2803 -109.7814 296° West 443 510 38,000  Level Salt Lake Center
10:59AM 41.3300 -109.9222 295° West 440 506 38,000  Level Salt Lake Center
11:00AM 41.3889 -110.0858 296° West 439 505 38,000  Level Salt Lake Center
11:01AM 41.4392 -110.2256 296° West 438 504 38,000  Level Salt Lake Center
11:03AM 41.4958 -110.3897 295° West 436 502 38,000  Level Salt Lake Center
11:04AM 41.5469 -110.5289 296° West 438 504 38,000  Level Salt Lake Center
11:05AM 41.6036 -110.6936 295° West 438 504 38,000  Level Salt Lake Center
11:06AM 41.6544 -110.8356 296° West 442 509 38,000  Level Salt Lake Center
11:07AM 41.7019 -110.9742 295° West 440 506 38,000  Level Salt Lake Center
11:08AM 41.7622 -111.1503 295° West 436 502 38,000  Level Salt Lake Center
11:09AM 41.8125 -111.2958 295° West 434 499 38,000  Level Salt Lake Center
11:10AM 41.8628 -111.4428 295° West 435 501 38,000  Level Salt Lake Center
11:11AM 41.9131 -111.5922 294° West 442 509 38,000  Level Salt Lake Center
11:12AM 41.9628 -111.7400 294° West 439 505 38,000  Level Salt Lake Center
11:13AM 42.0228 -111.9172 295° West 437 503 38,000  Level Salt Lake Center
11:14AM 42.0731 -112.0678 294° West 441 507 38,000  Level Salt Lake Center
11:15AM 42.1225 -112.2181 294° West 443 510 38,000  Level Salt Lake Center
11:16AM 42.1733 -112.3689 294° West 445 512 38,000  Level Salt Lake Center
11:17AM 42.2258 -112.5189 295° West 444 511 38,000  Level Salt Lake Center
11:18AM 42.2828 -112.6678 297° West 447 514 38,000  Level Salt Lake Center
11:19AM 42.3503 -112.8464 297° West 448 516 38,000  Level Salt Lake Center
11:20AM 42.4075 -112.9958 297° West 449 517 38,000  Level Salt Lake Center
11:21AM 42.4656 -113.1461 298° West 450 518 38,000  Level Salt Lake Center
11:22AM 42.5217 -113.2956 297° West 448 516 38,000  Level Salt Lake Center
11:23AM 42.5783 -113.4456 297° West 448 516 38,000  Level Salt Lake Center
11:24AM 42.6458 -113.6292 297° West 453 521 38,000  Level Salt Lake Center
11:25AM 42.7047 -113.7878 297° West 454 522 38,000  Level Salt Lake Center
11:26AM 42.7564 -113.9378 295° West 456 525 38,000  Level Salt Lake Center
11:27AM 42.8119 -114.0922 296° West 453 521 38,000 -1,440 Level Salt Lake Center
11:28AM 42.8697 -114.2469 297° West 459 528 35,100 -3,000 Descending Salt Lake Center
11:29AM 42.9325 -114.4144 297° West 453 521 31,800 -3,240 Descending Salt Lake Center
11:30AM 42.9925 -114.5825 296° West 439 505 28,500 -3,000 Descending Salt Lake Center
11:31AM 43.0436 -114.7239 296° West 433 498 25,600 -2,820 Descending Salt Lake Center
11:32AM 43.0919 -114.8608 296° West 419 482 22,700 -3,120 Descending Salt Lake Center
11:34AM 43.1506 -115.0225 296° West 410 472 19,200 -3,300 Descending Salt Lake Center
11:35AM 43.1997 -115.1631 296° West 395 455 16,000 -3,000 Descending Salt Lake Center
11:36AM 43.2458 -115.2969 295° West 377 434 13,000 -1,500 Descending Salt Lake Center
11:37AM 43.2867 -115.4156 295° West 361 415 13,000 -960 Level Salt Lake Center
11:38AM 43.3306 -115.5439 295° West 356 410 11,100 -1,560 Descending Salt Lake Center
11:39AM 43.3686 -115.6519 296° West 299 344 9,800 -1,560 Descending Salt Lake Center
11:40AM 43.4031 -115.7542 295° West 284 327 7,900 -1,500 Descending Salt Lake Center
11:41AM 43.4369 -115.8550 295° West 279 321 6,700 -960 Descending Salt Lake Center
11:42AM 43.4722 -115.9531 296° West 275 316 6,000 -660 Descending Salt Lake Center
11:43AM 43.5031 -116.0444 295° West 256 295 5,400 -780 Descending Salt Lake Center
11:44AM 43.5258 -116.1094 296° West 184 212 4,400 -900 Descending Salt Lake Center
11:45AM 43.5408 -116.1528 296° West 150 173 3,600 -780 Descending Salt Lake Center
11:47AM 43.5500 -116.2167 270° West  Level FlightAware Approximate
11:54AM 43.5644 -116.2229 270° West  Level Estimated
11:55AM 43.5644 -116.2229 270° West  Level Estimated
11:56AM 43.5644 -116.2229 270° West  Level Estimated